createdAt,value
2023-04-28T00:00:58.861Z,97894.34
2023-04-28T00:03:28.603Z,97892.09
2023-04-28T00:05:57.859Z,97891.47
2023-04-28T00:08:27.955Z,97877.00
2023-04-28T00:10:56.516Z,97876.44
2023-04-28T00:13:25.910Z,97876.63
2023-04-28T00:15:56.484Z,97881.03
2023-04-28T00:18:24.948Z,97875.91
2023-04-28T00:20:53.631Z,97874.25
2023-04-28T00:23:22.161Z,97872.16
2023-04-28T00:25:54.253Z,97876.19
2023-04-28T00:28:33.511Z,97875.63
2023-04-28T00:31:02.894Z,97867.22
2023-04-28T00:33:31.452Z,97858.97
2023-04-28T00:36:02.899Z,97866.09
2023-04-28T00:38:31.409Z,97869.81
2023-04-28T00:41:01.247Z,97866.66
2023-04-28T00:43:30.129Z,97855.16
2023-04-28T00:45:58.842Z,97860.50
2023-04-28T00:48:27.858Z,97873.06
2023-04-28T00:50:56.403Z,97876.78
2023-04-28T00:53:25.224Z,97871.69
2023-04-28T00:55:57.272Z,97864.00
2023-04-28T00:58:27.321Z,97867.63
2023-04-28T01:01:03.459Z,97860.78
2023-04-28T01:03:32.254Z,97860.63
2023-04-28T01:06:01.851Z,97841.06
2023-04-28T01:08:32.912Z,97855.34
2023-04-28T01:11:03.298Z,97871.00
2023-04-28T01:13:54.847Z,97851.53
2023-04-28T01:16:23.470Z,97869.69
2023-04-28T01:18:51.883Z,97852.84
2023-04-28T01:21:29.251Z,97852.03
2023-04-28T01:24:00.369Z,97870.38
2023-04-28T01:26:29.684Z,97862.59
2023-04-28T01:28:58.269Z,97873.81
2023-04-28T01:31:26.892Z,97859.25
2023-04-28T01:33:55.581Z,97868.78
2023-04-28T01:36:24.117Z,97872.09
2023-04-28T01:38:53.000Z,97872.09
2023-04-28T01:41:22.928Z,97861.72
2023-04-28T01:43:51.366Z,97846.94
2023-04-28T01:46:19.986Z,97839.88
2023-04-28T01:48:48.717Z,97856.13
2023-04-28T01:51:17.040Z,97837.56
2023-04-28T01:53:45.402Z,97841.13
2023-04-28T01:56:14.024Z,97849.81
2023-04-28T01:58:43.970Z,97835.53
2023-04-28T02:01:13.406Z,97851.78
2023-04-28T02:03:42.755Z,97837.50
2023-04-28T02:06:11.433Z,97850.06
2023-04-28T02:08:39.626Z,97854.91
2023-04-28T02:11:08.376Z,97838.50
2023-04-28T02:13:37.280Z,97840.59
2023-04-28T02:16:07.975Z,97848.66
2023-04-28T02:18:36.777Z,97856.63
2023-04-28T02:21:11.436Z,97854.94
2023-04-28T02:23:40.268Z,97848.88
2023-04-28T02:26:09.618Z,97851.25
2023-04-28T02:28:37.961Z,97869.16
2023-04-28T02:31:10.177Z,97866.66
2023-04-28T02:33:39.076Z,97848.22
2023-04-28T02:36:08.681Z,97843.06
2023-04-28T02:38:36.955Z,97858.34
2023-04-28T02:41:09.469Z,97870.03
2023-04-28T02:43:39.000Z,97852.97
2023-04-28T02:46:09.059Z,97852.25
2023-04-28T02:48:37.757Z,97851.78
2023-04-28T02:51:06.707Z,97868.28
2023-04-28T02:53:35.936Z,97860.75
2023-04-28T02:56:04.805Z,97858.91
2023-04-28T02:58:34.537Z,97851.63
2023-04-28T03:01:02.948Z,97861.00
2023-04-28T03:03:32.772Z,97856.78
2023-04-28T03:06:01.403Z,97839.66
2023-04-28T03:08:29.982Z,97856.66
2023-04-28T03:10:58.366Z,97844.78
2023-04-28T03:13:27.449Z,97850.06
2023-04-28T03:15:55.775Z,97831.50
2023-04-28T03:18:24.714Z,97820.22
2023-04-28T03:20:54.395Z,97838.38
2023-04-28T03:23:22.734Z,97839.03
2023-04-28T03:25:51.253Z,97835.69
2023-04-28T03:28:19.775Z,97834.13
2023-04-28T03:30:48.127Z,97835.00
2023-04-28T03:33:16.607Z,97824.47
2023-04-28T03:35:45.054Z,97829.63
2023-04-28T03:38:15.090Z,97821.19
2023-04-28T03:40:43.467Z,97820.69
2023-04-28T03:43:15.423Z,97829.72
2023-04-28T03:46:00.409Z,97842.03
2023-04-28T03:48:29.217Z,97816.28
2023-04-28T03:50:57.572Z,97833.00
2023-04-28T03:53:28.592Z,97824.44
2023-04-28T03:55:57.162Z,97833.84
2023-04-28T03:58:26.955Z,97839.88
2023-04-28T04:00:55.459Z,97828.66
2023-04-28T04:03:26.793Z,97837.22
2023-04-28T04:05:57.732Z,97824.97
2023-04-28T04:08:27.538Z,97834.53
2023-04-28T04:10:56.138Z,97836.22
2023-04-28T04:13:25.601Z,97835.38
2023-04-28T04:15:54.203Z,97834.94
2023-04-28T04:18:25.359Z,97839.16
2023-04-28T04:21:33.133Z,97843.91
2023-04-28T04:24:03.553Z,97848.91
2023-04-28T04:26:32.139Z,97847.75
2023-04-28T04:29:01.426Z,97849.16
2023-04-28T04:31:30.082Z,97840.06
2023-04-28T04:33:58.361Z,97847.59
2023-04-28T04:36:27.352Z,97836.38
2023-04-28T04:38:55.942Z,97827.44
2023-04-28T04:41:27.777Z,97829.78
2023-04-28T04:44:14.240Z,97839.03
2023-04-28T04:46:48.826Z,97833.47
2023-04-28T04:49:19.887Z,97829.94
2023-04-28T04:51:48.667Z,97828.78
2023-04-28T04:54:17.647Z,97829.38
2023-04-28T04:56:48.254Z,97829.94
2023-04-28T04:59:28.848Z,97819.47
2023-04-28T05:02:08.664Z,97816.31
2023-04-28T05:04:38.429Z,97830.56
2023-04-28T05:07:07.313Z,97808.00
2023-04-28T05:09:36.491Z,97826.66
2023-04-28T05:12:07.794Z,97836.88
2023-04-28T05:14:36.728Z,97828.09
2023-04-28T05:17:05.159Z,97825.16
2023-04-28T05:19:38.349Z,97830.59
2023-04-28T05:22:07.350Z,97826.78
2023-04-28T05:24:38.146Z,97827.00
2023-04-28T05:27:08.612Z,97812.56
2023-04-28T05:29:37.329Z,97818.69
2023-04-28T05:32:06.831Z,97818.50
2023-04-28T05:34:35.587Z,97816.72
2023-04-28T05:37:04.459Z,97816.09
2023-04-28T05:39:34.348Z,97806.47
2023-04-28T05:42:06.128Z,97813.59
2023-04-28T05:44:36.221Z,97812.75
2023-04-28T05:47:05.395Z,97806.28
2023-04-28T05:49:35.046Z,97809.19
2023-04-28T05:52:06.514Z,97805.81
2023-04-28T05:54:35.876Z,97792.72
2023-04-28T05:57:04.525Z,97805.03
2023-04-28T05:59:33.289Z,97812.41
2023-04-28T06:02:03.815Z,97813.59
2023-04-28T06:04:33.063Z,97805.75
2023-04-28T06:07:02.096Z,97803.94
2023-04-28T06:09:30.516Z,97796.53
2023-04-28T06:11:59.523Z,97804.38
2023-04-28T06:14:28.738Z,97808.63
2023-04-28T06:16:57.645Z,97809.84
2023-04-28T06:19:27.860Z,97813.28
2023-04-28T06:21:56.849Z,97823.34
2023-04-28T06:24:25.469Z,97822.31
2023-04-28T06:26:57.930Z,97820.69
2023-04-28T06:29:28.279Z,97827.63
2023-04-28T06:31:57.973Z,97826.25
2023-04-28T06:34:31.283Z,97821.31
2023-04-28T06:37:00.197Z,97823.88
2023-04-28T06:39:29.287Z,97820.44
2023-04-28T06:41:58.215Z,97821.47
2023-04-28T06:44:29.319Z,97807.22
2023-04-28T06:46:58.031Z,97811.03
2023-04-28T06:49:26.734Z,97809.47
2023-04-28T06:52:02.497Z,97803.88
2023-04-28T06:54:32.246Z,97814.34
2023-04-28T06:57:01.176Z,97814.88
2023-04-28T06:59:29.936Z,97813.16
2023-04-28T07:01:58.412Z,97810.50
2023-04-28T07:04:27.657Z,97797.34
2023-04-28T07:06:56.630Z,97797.63
2023-04-28T07:09:26.475Z,97803.38
2023-04-28T07:11:55.840Z,97806.78
2023-04-28T07:14:24.502Z,97800.44
2023-04-28T07:16:53.253Z,97790.09
2023-04-28T07:19:21.775Z,97807.75
2023-04-28T07:21:50.347Z,97797.97
2023-04-28T07:24:19.134Z,97804.53
2023-04-28T07:26:49.318Z,97795.50
2023-04-28T07:29:18.120Z,97782.31
2023-04-28T07:31:47.298Z,97787.53
2023-04-28T07:34:16.091Z,97777.75
2023-04-28T07:36:45.388Z,97791.56
2023-04-28T07:39:14.308Z,97780.06
2023-04-28T07:41:42.930Z,97775.59
2023-04-28T07:44:12.994Z,97785.38
2023-04-28T07:46:42.037Z,97782.00
2023-04-28T07:49:10.812Z,97781.16
2023-04-28T07:51:39.177Z,97779.00
2023-04-28T07:54:08.063Z,97766.19
2023-04-28T07:56:36.840Z,97771.88
2023-04-28T07:59:05.558Z,97768.69
2023-04-28T08:01:35.608Z,97764.53
2023-04-28T08:04:04.203Z,97767.47
2023-04-28T08:06:33.342Z,97755.88
2023-04-28T08:09:02.336Z,97767.56
2023-04-28T08:11:30.733Z,97775.53
2023-04-28T08:14:02.285Z,97788.50
2023-04-28T08:16:30.678Z,97791.41
2023-04-28T08:19:01.039Z,97780.00
2023-04-28T08:21:29.528Z,97767.84
2023-04-28T08:23:57.864Z,97768.50
2023-04-28T08:26:27.262Z,97767.03
2023-04-28T08:28:55.745Z,97774.88
2023-04-28T08:31:24.297Z,97778.72
2023-04-28T08:33:53.527Z,97762.09
2023-04-28T08:36:25.469Z,97771.88
2023-04-28T08:38:54.045Z,97773.59
2023-04-28T08:41:22.782Z,97765.91
2023-04-28T08:43:51.353Z,97760.09
2023-04-28T08:46:22.821Z,97748.59
2023-04-28T08:48:51.673Z,97750.38
2023-04-28T08:51:30.295Z,97757.44
2023-04-28T08:56:35.422Z,97746.09
2023-04-28T08:59:05.631Z,97744.94
2023-04-28T09:01:34.928Z,97757.31
2023-04-28T09:04:04.194Z,97757.34
2023-04-28T09:06:37.416Z,97750.06
2023-04-28T09:09:27.069Z,97759.69
2023-04-28T09:11:58.922Z,97762.91
2023-04-28T09:14:28.124Z,97760.81
2023-04-28T09:16:57.245Z,97753.78
2023-04-28T09:19:26.176Z,97748.16
2023-04-28T09:21:57.590Z,97749.81
2023-04-28T09:24:33.703Z,97754.91
2023-04-28T09:27:03.686Z,97765.66
2023-04-28T09:29:33.169Z,97763.53
2023-04-28T09:32:15.675Z,97761.75
2023-04-28T09:34:46.658Z,97751.28
2023-04-28T09:37:21.316Z,97759.53
2023-04-28T09:39:51.931Z,97754.72
2023-04-28T09:42:34.763Z,97747.88
2023-04-28T09:45:04.169Z,97751.16
2023-04-28T09:47:35.246Z,97745.72
2023-04-28T09:50:06.428Z,97734.00
2023-04-28T09:52:37.305Z,97737.09
2023-04-28T09:55:08.926Z,97746.50
2023-04-28T09:57:37.949Z,97738.63
2023-04-28T10:00:09.309Z,97722.53
2023-04-28T10:05:11.537Z,97728.00
2023-04-28T10:07:42.446Z,97722.69
2023-04-28T10:10:11.881Z,97712.41
2023-04-28T10:12:41.494Z,97721.78
2023-04-28T10:15:11.761Z,97718.50
2023-04-28T10:17:40.749Z,97714.91
2023-04-28T10:20:10.542Z,97719.06
2023-04-28T10:22:56.318Z,97712.97
2023-04-28T10:25:30.159Z,97710.69
2023-04-28T10:27:59.858Z,97696.09
2023-04-28T10:30:30.285Z,97699.84
2023-04-28T10:33:27.211Z,97693.91
2023-04-28T10:35:55.899Z,97682.38
2023-04-28T10:38:25.783Z,97677.06
2023-04-28T10:40:55.576Z,97663.22
2023-04-28T10:43:37.856Z,97676.78
2023-04-28T10:46:08.720Z,97660.94
2023-04-28T10:48:57.470Z,97649.38
2023-04-28T10:51:33.355Z,97647.47
2023-04-28T10:54:19.819Z,97648.19
2023-04-28T10:57:18.325Z,97650.47
2023-04-28T10:59:47.263Z,97656.66
2023-04-28T11:02:44.973Z,97656.53
2023-04-28T11:05:16.720Z,97655.19
2023-04-28T11:08:30.462Z,97645.50
2023-04-28T11:11:20.083Z,97635.41
2023-04-28T11:13:49.605Z,97639.34
2023-04-28T11:16:20.757Z,97625.03
2023-04-28T11:18:59.402Z,97616.91
2023-04-28T11:21:29.653Z,97621.28
2023-04-28T11:23:59.192Z,97609.78
2023-04-28T11:26:30.931Z,97599.56
2023-04-28T11:28:59.850Z,97605.34
2023-04-28T11:31:28.999Z,97598.19
2023-04-28T11:34:05.209Z,97590.28
2023-04-28T11:36:36.893Z,97584.06
2023-04-28T11:39:08.107Z,97582.06
2023-04-28T11:41:39.358Z,97588.78
2023-04-28T11:44:15.176Z,97576.06
2023-04-28T11:46:50.665Z,97569.84
2023-04-28T11:49:20.534Z,97565.84
2023-04-28T11:51:50.394Z,97575.13
2023-04-28T11:54:23.675Z,97565.25
2023-04-28T11:56:54.257Z,97561.84
2023-04-28T11:59:26.647Z,97562.59
2023-04-28T12:01:57.368Z,97563.19
2023-04-28T12:04:35.890Z,97566.59
2023-04-28T12:07:06.394Z,97557.75
2023-04-28T12:09:35.979Z,97563.31
2023-04-28T12:12:07.005Z,97565.44
2023-04-28T12:14:56.454Z,97565.53
2023-04-28T12:17:25.653Z,97560.69
2023-04-28T12:19:54.553Z,97551.59
2023-04-28T12:22:23.454Z,97545.38
2023-04-28T12:25:08.438Z,97549.81
2023-04-28T12:27:40.633Z,97561.66
2023-04-28T12:30:27.586Z,97559.63
2023-04-28T12:32:57.758Z,97559.91
2023-04-28T12:35:28.849Z,97556.56
2023-04-28T12:37:59.197Z,97562.91
2023-04-28T12:40:27.678Z,97557.53
2023-04-28T12:42:57.517Z,97552.25
2023-04-28T12:45:25.917Z,97546.72
2023-04-28T12:47:54.221Z,97550.47
2023-04-28T12:50:22.570Z,97544.63
2023-04-28T12:52:50.857Z,97534.41
2023-04-28T12:55:19.434Z,97528.16
2023-04-28T12:57:47.972Z,97530.88
2023-04-28T13:00:21.261Z,97522.66
2023-04-28T13:02:50.070Z,97517.97
2023-04-28T13:05:19.653Z,97526.28
2023-04-28T13:07:49.604Z,97521.69
2023-04-28T13:10:18.401Z,97517.91
2023-04-28T13:12:46.829Z,97510.38
2023-04-28T13:15:15.166Z,97513.06
2023-04-28T13:17:46.623Z,97508.44
2023-04-28T13:20:15.537Z,97505.44
2023-04-28T13:22:43.931Z,97504.38
2023-04-28T13:25:12.279Z,97501.00
2023-04-28T13:27:43.224Z,97500.47
2023-04-28T13:30:13.292Z,97497.28
2023-04-28T13:32:41.685Z,97493.03
2023-04-28T13:35:11.783Z,97486.09
2023-04-28T13:37:45.758Z,97483.81
2023-04-28T13:40:14.547Z,97476.44
2023-04-28T13:42:42.902Z,97474.31
2023-04-28T13:45:11.971Z,97481.47
2023-04-28T13:47:40.450Z,97477.41
2023-04-28T13:50:09.572Z,97484.72
2023-04-28T13:52:39.341Z,97461.81
2023-04-28T13:55:08.403Z,97470.34
2023-04-28T13:57:36.688Z,97471.97
2023-04-28T14:00:05.657Z,97473.00
2023-04-28T14:02:38.946Z,97471.56
2023-04-28T14:05:08.517Z,97473.31
2023-04-28T14:07:38.375Z,97476.44
2023-04-28T14:10:06.996Z,97479.28
2023-04-28T14:12:35.467Z,97475.97
2023-04-28T14:15:03.848Z,97473.22
2023-04-28T14:17:32.701Z,97464.56
2023-04-28T14:20:01.838Z,97467.97
2023-04-28T14:22:30.270Z,97474.63
2023-04-28T14:24:59.999Z,97477.63
2023-04-28T14:27:29.415Z,97470.31
2023-04-28T14:29:57.881Z,97461.78
2023-04-28T14:32:26.519Z,97464.56
2023-04-28T14:34:54.858Z,97460.75
2023-04-28T14:37:23.209Z,97470.19
2023-04-28T14:39:52.001Z,97465.09
2023-04-28T14:42:21.852Z,97466.63
2023-04-28T14:44:51.404Z,97472.56
2023-04-28T14:47:20.695Z,97469.38
2023-04-28T14:49:49.210Z,97472.50
2023-04-28T14:52:18.154Z,97469.50
2023-04-28T14:54:47.487Z,97471.81
2023-04-28T14:57:16.285Z,97471.09
2023-04-28T14:59:46.545Z,97476.19
2023-04-28T15:02:15.099Z,97470.84
2023-04-28T15:04:43.713Z,97476.72
2023-04-28T15:07:12.226Z,97471.81
2023-04-28T15:09:40.766Z,97468.09
2023-04-28T15:12:09.328Z,97471.38
2023-04-28T15:14:37.923Z,97461.69
2023-04-28T15:17:08.190Z,97465.69
2023-04-28T15:19:37.030Z,97468.72
2023-04-28T15:22:05.608Z,97470.41
2023-04-28T15:24:33.948Z,97469.59
2023-04-28T15:27:04.116Z,97467.97
2023-04-28T15:29:32.596Z,97471.00
2023-04-28T15:32:01.438Z,97466.91
2023-04-28T15:34:31.637Z,97461.69
2023-04-28T15:37:00.213Z,97452.19
2023-04-28T15:39:28.766Z,97458.75
2023-04-28T15:41:58.773Z,97463.16
2023-04-28T15:44:28.635Z,97449.09
2023-04-28T15:46:58.971Z,97449.78
2023-04-28T15:49:27.288Z,97450.53
2023-04-28T15:51:57.744Z,97453.88
2023-04-28T15:54:26.176Z,97447.56
2023-04-28T15:56:55.494Z,97452.19
2023-04-28T15:59:24.418Z,97442.88
2023-04-28T16:01:52.933Z,97442.03
2023-04-28T16:04:21.612Z,97432.00
2023-04-28T16:06:52.139Z,97422.41
2023-04-28T16:09:22.062Z,97427.47
2023-04-28T16:11:50.631Z,97415.53
2023-04-28T16:14:19.119Z,97402.34
2023-04-28T16:16:47.570Z,97395.31
2023-04-28T16:19:16.287Z,97377.56
2023-04-28T16:21:44.800Z,97372.03
2023-04-28T16:24:13.198Z,97376.16
2023-04-28T16:26:43.553Z,97362.75
2023-04-28T16:29:14.276Z,97362.50
2023-04-28T16:31:43.036Z,97363.25
2023-04-28T16:34:11.994Z,97373.25
2023-04-28T16:36:41.576Z,97381.47
2023-04-28T16:39:10.436Z,97386.28
2023-04-28T16:41:38.830Z,97390.06
2023-04-28T16:44:09.066Z,97400.22
2023-04-28T16:46:37.521Z,97383.38
2023-04-28T16:49:05.847Z,97397.44
2023-04-28T16:51:34.769Z,97389.00
2023-04-28T16:54:03.291Z,97386.31
2023-04-28T16:56:32.582Z,97387.03
2023-04-28T16:59:00.940Z,97374.56
2023-04-28T17:01:31.814Z,97383.16
2023-04-28T17:04:00.670Z,97379.75
2023-04-28T17:06:29.370Z,97381.19
2023-04-28T17:08:59.035Z,97377.19
2023-04-28T17:11:27.840Z,97373.91
2023-04-28T17:13:56.499Z,97374.41
2023-04-28T17:16:25.037Z,97362.81
2023-04-28T17:18:55.216Z,97359.72
2023-04-28T17:21:23.805Z,97360.81
2023-04-28T17:23:52.681Z,97355.25
2023-04-28T17:26:21.135Z,97358.22
2023-04-28T17:28:49.740Z,97353.13
2023-04-28T17:31:18.509Z,97359.94
2023-04-28T17:33:47.210Z,97353.34
2023-04-28T17:36:17.293Z,97354.81
2023-04-28T17:38:46.087Z,97349.75
2023-04-28T17:41:15.265Z,97360.28
2023-04-28T17:43:44.016Z,97367.44
2023-04-28T17:46:12.743Z,97352.16
2023-04-28T17:48:41.377Z,97345.88
2023-04-28T17:51:09.707Z,97340.66
2023-04-28T17:53:40.560Z,97326.72
2023-04-28T17:56:09.660Z,97339.03
2023-04-28T17:58:38.045Z,97353.09
2023-04-28T18:01:08.585Z,97354.81
2023-04-28T18:03:39.294Z,97354.34
2023-04-28T18:06:08.227Z,97356.25
2023-04-28T18:08:37.644Z,97356.03
2023-04-28T18:11:10.218Z,97344.03
2023-04-28T18:13:38.637Z,97351.72
2023-04-28T18:16:08.824Z,97355.00
2023-04-28T18:18:38.471Z,97364.72
2023-04-28T18:21:07.077Z,97362.31
2023-04-28T18:23:35.531Z,97341.69
2023-04-28T18:26:05.159Z,97355.91
2023-04-28T18:28:35.622Z,97359.66
2023-04-28T18:31:06.752Z,97367.66
2023-04-28T18:33:36.296Z,97363.66
2023-04-28T18:36:06.791Z,97351.78
2023-04-28T18:38:36.813Z,97354.19
2023-04-28T18:41:14.142Z,97346.13
2023-04-28T18:43:45.665Z,97345.72
2023-04-28T18:46:15.189Z,97359.41
2023-04-28T18:48:44.010Z,97352.72
2023-04-28T18:51:13.912Z,97348.34
2023-04-28T18:53:43.567Z,97347.28
2023-04-28T18:56:13.534Z,97338.81
2023-04-28T18:58:43.014Z,97343.13
2023-04-28T19:01:16.663Z,97346.97
2023-04-28T19:03:48.423Z,97344.84
2023-04-28T19:06:17.957Z,97341.03
2023-04-28T19:08:48.425Z,97346.34
2023-04-28T19:11:18.354Z,97352.50
2023-04-28T19:13:48.254Z,97354.72
2023-04-28T19:16:20.058Z,97361.63
2023-04-28T19:18:49.275Z,97359.25
2023-04-28T19:21:18.063Z,97365.72
2023-04-28T19:23:47.263Z,97361.56
2023-04-28T19:26:17.160Z,97354.56
2023-04-28T19:28:50.250Z,97361.47
2023-04-28T19:31:21.447Z,97353.75
2023-04-28T19:33:51.322Z,97346.31
2023-04-28T19:36:24.237Z,97346.41
2023-04-28T19:38:55.980Z,97343.56
2023-04-28T19:41:25.701Z,97326.91
2023-04-28T19:43:55.245Z,97317.66
2023-04-28T19:46:25.488Z,97327.31
2023-04-28T19:48:54.710Z,97327.00
2023-04-28T19:51:23.656Z,97338.34
2023-04-28T19:53:55.583Z,97337.38
2023-04-28T19:56:26.119Z,97332.72
2023-04-28T19:58:57.497Z,97336.50
2023-04-28T20:01:30.186Z,97333.84
2023-04-28T20:04:02.072Z,97324.72
2023-04-28T20:06:32.741Z,97330.66
2023-04-28T20:09:07.897Z,97333.31
2023-04-28T20:11:36.750Z,97345.63
2023-04-28T20:14:05.361Z,97343.56
2023-04-28T20:16:35.713Z,97339.81
2023-04-28T20:19:04.762Z,97344.94
2023-04-28T20:21:35.844Z,97347.78
2023-04-28T20:24:04.871Z,97347.03
2023-04-28T20:26:33.774Z,97331.78
2023-04-28T20:29:03.654Z,97339.38
2023-04-28T20:31:32.662Z,97341.94
2023-04-28T20:34:04.626Z,97333.66
2023-04-28T20:36:33.833Z,97330.94
2023-04-28T20:39:02.614Z,97307.59
2023-04-28T20:41:31.309Z,97309.72
2023-04-28T20:43:59.667Z,97296.25
2023-04-28T20:46:28.020Z,97310.16
2023-04-28T20:48:56.194Z,97307.50
2023-04-28T20:51:25.936Z,97307.81
2023-04-28T20:53:54.347Z,97302.94
2023-04-28T20:56:22.581Z,97296.56
2023-04-28T20:58:51.026Z,97310.84
2023-04-28T21:01:19.746Z,97328.69
2023-04-28T21:03:48.563Z,97326.13
2023-04-28T21:06:17.006Z,97332.06
2023-04-28T21:08:46.985Z,97330.59
2023-04-28T21:11:16.677Z,97323.59
2023-04-28T21:13:45.940Z,97303.00
2023-04-28T21:16:19.407Z,97318.25
2023-04-28T21:18:50.948Z,97336.66
2023-04-28T21:21:19.369Z,97339.94
2023-04-28T21:23:49.703Z,97332.81
2023-04-28T21:26:18.421Z,97312.75
2023-04-28T21:28:46.658Z,97325.91
2023-04-28T21:31:15.027Z,97322.81
2023-04-28T21:33:43.297Z,97317.25
2023-04-28T21:36:11.738Z,97321.44
2023-04-28T21:38:40.265Z,97315.88
2023-04-28T21:41:12.534Z,97319.19
2023-04-28T21:43:40.841Z,97330.31
2023-04-28T21:46:09.791Z,97333.16
2023-04-28T21:48:38.743Z,97332.44
2023-04-28T21:51:07.199Z,97330.94
2023-04-28T21:53:36.321Z,97317.06
2023-04-28T21:56:05.795Z,97317.78
2023-04-28T21:58:36.328Z,97316.81
2023-04-28T22:01:05.890Z,97313.56
2023-04-28T22:03:36.312Z,97325.63
2023-04-28T22:06:05.639Z,97316.94
2023-04-28T22:08:34.525Z,97334.16
2023-04-28T22:11:02.809Z,97328.38
2023-04-28T22:13:31.094Z,97325.19
2023-04-28T22:16:01.908Z,97338.03
2023-04-28T22:18:30.645Z,97334.94
2023-04-28T22:20:59.341Z,97317.66
2023-04-28T22:23:27.780Z,97323.38
2023-04-28T22:25:59.250Z,97308.66
2023-04-28T22:28:27.854Z,97317.75
2023-04-28T22:30:56.211Z,97338.13
2023-04-28T22:33:26.287Z,97335.88
2023-04-28T22:35:54.630Z,97319.44
2023-04-28T22:38:22.699Z,97318.28
2023-04-28T22:40:50.872Z,97314.16
2023-04-28T22:43:19.251Z,97326.47
2023-04-28T22:45:47.587Z,97326.03
2023-04-28T22:48:15.971Z,97310.03
2023-04-28T22:50:47.512Z,97313.72
2023-04-28T22:53:15.807Z,97303.00
2023-04-28T22:55:44.222Z,97305.94
2023-04-28T22:58:12.649Z,97326.00
2023-04-28T23:00:41.606Z,97310.41
2023-04-28T23:03:10.094Z,97318.16
2023-04-28T23:05:39.254Z,97318.34
2023-04-28T23:08:09.007Z,97322.59
2023-04-28T23:10:37.410Z,97311.06
2023-04-28T23:13:06.305Z,97316.03
2023-04-28T23:15:34.600Z,97320.94
2023-04-28T23:18:02.848Z,97307.41
2023-04-28T23:20:31.366Z,97310.16
2023-04-28T23:22:59.638Z,97292.19
2023-04-28T23:25:29.801Z,97289.56
2023-04-28T23:27:58.065Z,97287.97
2023-04-28T23:30:26.537Z,97295.06
2023-04-28T23:32:54.892Z,97278.59
2023-04-28T23:35:23.224Z,97289.56
2023-04-28T23:37:51.532Z,97281.91
2023-04-28T23:40:19.942Z,97276.63
2023-04-28T23:42:49.722Z,97273.31
2023-04-28T23:45:18.173Z,97274.06
2023-04-28T23:47:46.420Z,97262.00
2023-04-28T23:50:14.770Z,97265.59
2023-04-28T23:52:44.011Z,97250.97
2023-04-28T23:55:13.153Z,97252.53
2023-04-28T23:57:41.995Z,97241.00
